Time;durP1;ratioP1;P1;durP2;ratioP2;P2;SDS_P1;SDS_P2;PMS_P1;PMS_P2;Temp;Humidity;BMP_temperature;BMP_pressure;BME280_temperature;BME280_humidity;BME280_pressure;Samples;Min_cycle;Max_cycle;Signal;HPM_P1;HPM_P2
2022/05/16 00:02:24;;;;;;;3.83;3.10;;;;;;;;;;4164430;34;20203;-69
2022/05/16 00:33:18;;;;;;;4.40;2.95;;;;;;;;;;4538846;28;20118;-69
2022/05/16 00:35:43;;;;;;;6.57;3.28;;;;;;;;;;4160332;34;20454;-69
2022/05/16 00:38:09;;;;;;;3.33;2.45;;;;;;;;;;4165850;34;20522;-69
2022/05/16 00:40:36;;;;;;;7.35;2.97;;;;;;;;;;4177292;34;20481;-69
2022/05/16 00:43:07;;;;;;;6.10;3.12;;;;;;;;;;4177431;34;20125;-69
2022/05/16 00:45:33;;;;;;;4.75;3.80;;;;;;;;;;4177584;34;20193;-64
2022/05/16 00:48:00;;;;;;;3.97;2.80;;;;;;;;;;4177604;34;20118;-64
2022/05/16 00:50:26;;;;;;;5.25;2.65;;;;;;;;;;4165041;34;20094;-63
2022/05/16 00:52:53;;;;;;;4.50;2.70;;;;;;;;;;4164767;34;20145;-63
2022/05/16 00:55:22;;;;;;;3.53;2.47;;;;;;;;;;4164735;34;20113;-62
2022/05/16 00:57:54;;;;;;;2.33;2.03;;;;;;;;;;4164886;34;20580;-63
2022/05/16 01:00:32;;;;;;;2.40;2.17;;;;;;;;;;4164927;34;20214;-62
2022/05/16 01:05:51;;;;;;;3.08;2.40;;;;;;;;;;4164616;34;20114;-62
2022/05/16 01:08:19;;;;;;;4.07;2.15;;;;;;;;;;4177405;34;20125;-63
2022/05/16 01:10:45;;;;;;;3.33;2.37;;;;;;;;;;4164655;34;20109;-62
2022/05/16 01:13:12;;;;;;;2.25;2.08;;;;;;;;;;4177431;34;20121;-70
2022/05/16 01:15:44;;;;;;;2.83;2.30;;;;;;;;;;4164876;34;20218;-70
2022/05/16 01:18:12;;;;;;;2.87;2.40;;;;;;;;;;4176044;34;20110;-71
2022/05/16 01:20:56;;;;;;;2.58;2.33;;;;;;;;;;4177220;34;20117;-70
2022/05/16 01:23:24;;;;;;;3.70;2.30;;;;;;;;;;4177241;34;20122;-71
2022/05/16 01:25:51;;;;;;;4.47;2.47;;;;;;;;;;4164512;34;20538;-71
2022/05/16 01:28:21;;;;;;;2.50;2.25;;;;;;;;;;4177337;34;20137;-71
2022/05/16 01:30:48;;;;;;;2.95;2.30;;;;;;;;;;4177203;34;20138;-70
2022/05/16 01:33:16;;;;;;;6.12;2.62;;;;;;;;;;4177014;34;20113;-71
2022/05/16 01:35:42;;;;;;;3.90;2.40;;;;;;;;;;4177053;34;20114;-70
2022/05/16 01:38:23;;;;;;;5.97;3.30;;;;;;;;;;4164458;34;20587;-71
2022/05/16 01:40:52;;;;;;;9.20;4.45;;;;;;;;;;4166047;34;20109;-71
2022/05/16 01:43:19;;;;;;;8.13;4.60;;;;;;;;;;4164444;34;20205;-71
2022/05/16 01:45:46;;;;;;;13.20;5.57;;;;;;;;;;4176401;34;20094;-70
2022/05/16 01:48:13;;;;;;;10.60;5.47;;;;;;;;;;4177044;34;20111;-70
2022/05/16 01:50:40;;;;;;;11.55;5.62;;;;;;;;;;4176965;34;20118;-70
2022/05/16 01:53:06;;;;;;;11.98;5.20;;;;;;;;;;4177118;34;20121;-69
2022/05/16 01:55:32;;;;;;;9.55;5.57;;;;;;;;;;4176952;34;20499;-70
2022/05/16 01:57:58;;;;;;;7.70;4.40;;;;;;;;;;4164444;34;20110;-70
2022/05/16 02:00:24;;;;;;;8.38;4.18;;;;;;;;;;4176899;34;20443;-70
2022/05/16 02:02:50;;;;;;;8.15;4.53;;;;;;;;;;4164448;34;20106;-71
2022/05/16 02:05:20;;;;;;;5.55;3.00;;;;;;;;;;4176887;34;20139;-71
2022/05/16 02:07:46;;;;;;;7.85;3.47;;;;;;;;;;4176963;34;20137;-71
2022/05/16 02:10:15;;;;;;;4.87;3.03;;;;;;;;;;4164036;34;20470;-69
2022/05/16 02:12:42;;;;;;;8.02;3.20;;;;;;;;;;4176863;34;20110;-69
2022/05/16 02:15:10;;;;;;;4.60;2.60;;;;;;;;;;4176694;34;20527;-69
2022/05/16 02:17:37;;;;;;;6.45;2.65;;;;;;;;;;4176772;34;20199;-69
2022/05/16 02:20:03;;;;;;;3.40;2.62;;;;;;;;;;4176750;34;20112;-69
2022/05/16 02:25:15;;;;;;;5.30;2.50;;;;;;;;;;4176689;34;20111;-68
2022/05/16 02:27:43;;;;;;;8.75;2.97;;;;;;;;;;4176733;34;20552;-69
2022/05/16 02:30:10;;;;;;;6.37;2.78;;;;;;;;;;4164003;34;20118;-71
2022/05/16 02:32:36;;;;;;;3.47;2.75;;;;;;;;;;4175417;34;20099;-71
2022/05/16 02:35:02;;;;;;;6.07;3.00;;;;;;;;;;4176681;34;20224;-71
2022/05/16 02:37:28;;;;;;;6.15;3.30;;;;;;;;;;4176654;34;20435;-70
2022/05/16 02:39:54;;;;;;;5.82;3.40;;;;;;;;;;4176799;34;20184;-70
2022/05/16 02:42:20;;;;;;;7.30;4.40;;;;;;;;;;4176763;34;20122;-70
2022/05/16 02:44:46;;;;;;;7.15;4.47;;;;;;;;;;4176417;34;20125;-69
2022/05/16 02:47:17;;;;;;;9.15;4.80;;;;;;;;;;4176485;34;20121;-69
2022/05/16 02:49:43;;;;;;;7.18;4.43;;;;;;;;;;4176483;34;20523;-69
2022/05/16 02:52:10;;;;;;;9.43;4.80;;;;;;;;;;4176448;34;20098;-69
2022/05/16 02:54:36;;;;;;;15.68;7.07;;;;;;;;;;4176691;34;20128;-70
2022/05/16 02:57:03;;;;;;;19.37;6.53;;;;;;;;;;4177331;34;20137;-69
2022/05/16 02:59:33;;;;;;;10.13;5.90;;;;;;;;;;4178333;34;20118;-71
2022/05/16 03:02:00;;;;;;;12.00;5.43;;;;;;;;;;4178419;34;20115;-69
2022/05/16 03:04:26;;;;;;;10.10;4.95;;;;;;;;;;4165954;34;20503;-69
2022/05/16 03:06:53;;;;;;;7.85;4.57;;;;;;;;;;4165931;34;20104;-69
2022/05/16 03:09:19;;;;;;;8.45;4.57;;;;;;;;;;4166036;34;20482;-69
2022/05/16 03:11:45;;;;;;;9.70;4.53;;;;;;;;;;4178449;34;20125;-68
2022/05/16 03:14:12;;;;;;;6.10;3.67;;;;;;;;;;4178503;34;20509;-68
2022/05/16 03:16:38;;;;;;;9.68;4.28;;;;;;;;;;4178610;34;20122;-68
2022/05/16 03:19:05;;;;;;;10.20;5.37;;;;;;;;;;4178377;34;20571;-69
2022/05/16 03:21:31;;;;;;;5.97;4.00;;;;;;;;;;4165705;34;20126;-69
2022/05/16 03:23:57;;;;;;;7.40;3.70;;;;;;;;;;4165312;34;20133;-69
2022/05/16 03:26:24;;;;;;;6.85;3.28;;;;;;;;;;4178348;34;20205;-69
2022/05/16 03:28:50;;;;;;;5.80;3.60;;;;;;;;;;4178187;34;20102;-69
2022/05/16 03:31:16;;;;;;;5.57;3.00;;;;;;;;;;4178473;34;20113;-70
2022/05/16 03:33:42;;;;;;;5.55;3.10;;;;;;;;;;4165403;34;20189;-70
2022/05/16 03:36:09;;;;;;;7.68;3.20;;;;;;;;;;4165624;34;20435;-70
2022/05/16 03:41:20;;;;;;;7.55;2.58;;;;;;;;;;4165253;34;20561;-74
2022/05/16 03:43:46;;;;;;;5.20;2.72;;;;;;;;;;4165572;34;20268;-65
2022/05/16 03:46:12;;;;;;;7.70;3.40;;;;;;;;;;4176404;34;20570;-69
2022/05/16 03:48:39;;;;;;;5.82;3.05;;;;;;;;;;4177923;34;20126;-68
2022/05/16 03:51:06;;;;;;;5.72;3.55;;;;;;;;;;4175068;34;20119;-70
2022/05/16 03:53:35;;;;;;;8.60;2.97;;;;;;;;;;4173933;34;20149;-68
2022/05/16 03:56:02;;;;;;;5.68;3.17;;;;;;;;;;4165166;34;20447;-69
2022/05/16 03:58:28;;;;;;;6.30;3.53;;;;;;;;;;4177975;34;20110;-67
2022/05/16 04:00:54;;;;;;;4.43;2.92;;;;;;;;;;4165119;34;20102;-67
2022/05/16 04:03:20;;;;;;;9.48;3.22;;;;;;;;;;4177736;34;20136;-69
2022/05/16 04:05:46;;;;;;;8.40;3.65;;;;;;;;;;4177817;34;20106;-67
2022/05/16 04:08:12;;;;;;;5.57;3.30;;;;;;;;;;4177213;34;20110;-71
2022/05/16 04:10:38;;;;;;;4.82;2.80;;;;;;;;;;4165191;34;20122;-71
2022/05/16 04:13:04;;;;;;;5.97;2.90;;;;;;;;;;4177797;34;20515;-70
2022/05/16 04:15:31;;;;;;;9.40;3.22;;;;;;;;;;4176074;34;20543;-70
2022/05/16 04:17:57;;;;;;;4.50;3.00;;;;;;;;;;4175893;34;20110;-71
2022/05/16 04:20:23;;;;;;;8.20;2.87;;;;;;;;;;4175733;34;20285;-68
2022/05/16 04:22:49;;;;;;;6.37;2.80;;;;;;;;;;4176529;34;20126;-67
2022/05/16 04:25:18;;;;;;;5.37;3.05;;;;;;;;;;4177625;34;20523;-66
2022/05/16 04:27:44;;;;;;;6.80;3.15;;;;;;;;;;4177993;34;20123;-67
2022/05/16 04:30:11;;;;;;;4.40;3.47;;;;;;;;;;4177620;34;20178;-66
2022/05/16 04:32:37;;;;;;;7.20;3.25;;;;;;;;;;4164883;34;20210;-66
2022/05/16 04:35:05;;;;;;;6.25;3.05;;;;;;;;;;4177755;34;20184;-65
2022/05/16 04:37:32;;;;;;;9.23;3.85;;;;;;;;;;4177814;34;20528;-67
2022/05/16 04:39:59;;;;;;;4.05;2.53;;;;;;;;;;4177803;34;20110;-65
2022/05/16 04:42:41;;;;;;;2.83;2.53;;;;;;;;;;4164774;34;20229;-67
2022/05/16 04:45:09;;;;;;;5.15;3.25;;;;;;;;;;4177564;34;20466;-66
2022/05/16 04:47:35;;;;;;;3.87;2.62;;;;;;;;;;4177513;34;20106;-67
2022/05/16 04:50:01;;;;;;;3.28;2.50;;;;;;;;;;4177530;34;20097;-67
2022/05/16 04:52:28;;;;;;;6.45;2.40;;;;;;;;;;4177745;34;20094;-66
2022/05/16 04:54:54;;;;;;;3.30;2.40;;;;;;;;;;4177539;34;20117;-67
2022/05/16 04:57:20;;;;;;;6.57;3.47;;;;;;;;;;4177320;34;20760;-67
2022/05/16 04:59:50;;;;;;;5.78;2.60;;;;;;;;;;4165007;34;20209;-67
2022/05/16 05:02:16;;;;;;;5.60;2.65;;;;;;;;;;4177211;34;20106;-67
2022/05/16 05:04:43;;;;;;;3.67;2.40;;;;;;;;;;4177374;34;20095;-67
2022/05/16 05:07:10;;;;;;;6.12;2.30;;;;;;;;;;4177340;34;20130;-71
2022/05/16 05:14:32;;;;;;;3.47;2.42;;;;;;;;;;4177435;34;20530;-70
2022/05/16 05:15:11;;;;;;;5.60;2.50;;;;;;;;;;4166494;34;20086;-67
2022/05/16 05:17:38;;;;;;;5.82;3.17;;;;;;;;;;4177577;34;20679;-66
2022/05/16 05:20:04;;;;;;;5.45;2.75;;;;;;;;;;4176414;34;20229;-68
2022/05/16 05:22:30;;;;;;;4.87;2.80;;;;;;;;;;4176987;34;20136;-67
2022/05/16 05:24:56;;;;;;;3.20;2.55;;;;;;;;;;4177029;34;20613;-67
2022/05/16 05:27:22;;;;;;;5.35;2.70;;;;;;;;;;4177314;34;20193;-66
2022/05/16 05:29:51;;;;;;;6.62;2.70;;;;;;;;;;4164486;34;20125;-67
2022/05/16 05:32:17;;;;;;;13.27;3.00;;;;;;;;;;4177089;34;20606;-67
2022/05/16 05:34:43;;;;;;;5.87;2.33;;;;;;;;;;4176963;34;20110;-67
2022/05/16 05:37:09;;;;;;;5.15;2.62;;;;;;;;;;4176894;34;20210;-67
2022/05/16 05:39:35;;;;;;;2.78;2.42;;;;;;;;;;4177095;34;20129;-68
2022/05/16 05:42:02;;;;;;;8.30;2.55;;;;;;;;;;4177251;34;20207;-69
2022/05/16 05:44:28;;;;;;;4.97;2.50;;;;;;;;;;4176955;34;20531;-69
2022/05/16 05:46:54;;;;;;;3.53;2.60;;;;;;;;;;4164337;34;20133;-68
2022/05/16 05:49:20;;;;;;;3.22;2.25;;;;;;;;;;4176781;34;20114;-67
2022/05/16 05:51:46;;;;;;;7.40;2.80;;;;;;;;;;4177030;34;20198;-67
2022/05/16 05:54:11;;;;;;;5.60;2.40;;;;;;;;;;4176796;34;20110;-67
2022/05/16 05:56:37;;;;;;;6.87;2.47;;;;;;;;;;4176645;34;20525;-66
2022/05/16 05:59:04;;;;;;;5.28;2.55;;;;;;;;;;4176890;34;20110;-67
2022/05/16 06:01:31;;;;;;;6.25;2.42;;;;;;;;;;4164487;34;20095;-66
2022/05/16 06:03:58;;;;;;;7.32;2.53;;;;;;;;;;4176961;34;20094;-67
2022/05/16 06:06:25;;;;;;;5.20;2.15;;;;;;;;;;4177135;34;20121;-68
2022/05/16 06:08:51;;;;;;;4.65;2.10;;;;;;;;;;4177318;34;20222;-66
2022/05/16 06:11:17;;;;;;;3.90;2.20;;;;;;;;;;4176886;34;20118;-67
2022/05/16 06:13:43;;;;;;;3.42;2.25;;;;;;;;;;4176821;34;20102;-66
2022/05/16 06:16:10;;;;;;;2.10;1.90;;;;;;;;;;4177023;34;20141;-67
2022/05/16 06:18:36;;;;;;;6.35;2.10;;;;;;;;;;4176873;34;20121;-66
2022/05/16 06:21:03;;;;;;;4.90;2.15;;;;;;;;;;4164180;34;20122;-67
2022/05/16 06:23:29;;;;;;;4.40;2.30;;;;;;;;;;4176775;34;20526;-69
2022/05/16 06:25:56;;;;;;;4.53;2.28;;;;;;;;;;4176664;34;20110;-68
2022/05/16 06:28:25;;;;;;;5.68;2.25;;;;;;;;;;4176501;34;20103;-67
2022/05/16 06:30:52;;;;;;;6.30;2.30;;;;;;;;;;4163375;34;20254;-66
2022/05/16 06:33:20;;;;;;;4.25;2.40;;;;;;;;;;4164122;34;20191;-66
2022/05/16 06:35:47;;;;;;;5.25;2.28;;;;;;;;;;4163834;34;20106;-67
2022/05/16 06:38:17;;;;;;;5.78;2.90;;;;;;;;;;4176495;34;20122;-66
2022/05/16 06:40:48;;;;;;;9.73;2.30;;;;;;;;;;4163867;34;20117;-68
2022/05/16 06:43:16;;;;;;;6.05;2.20;;;;;;;;;;4176787;34;20186;-67
2022/05/16 06:45:42;;;;;;;4.72;1.90;;;;;;;;;;4176459;34;20458;-67
2022/05/16 06:48:09;;;;;;;7.35;2.55;;;;;;;;;;4176463;34;20130;-67
2022/05/16 06:50:35;;;;;;;7.47;2.28;;;;;;;;;;4176422;34;20183;-67
2022/05/16 06:53:03;;;;;;;5.65;2.33;;;;;;;;;;4176415;34;20570;-67
2022/05/16 06:55:29;;;;;;;5.30;2.20;;;;;;;;;;4164057;34;20110;-66
2022/05/16 06:57:55;;;;;;;5.50;2.30;;;;;;;;;;4176522;34;20114;-66
2022/05/16 07:00:22;;;;;;;4.45;2.08;;;;;;;;;;4176400;34;20123;-67
2022/05/16 07:02:49;;;;;;;3.50;2.05;;;;;;;;;;4176213;34;20760;-66
2022/05/16 07:05:15;;;;;;;6.72;2.22;;;;;;;;;;4176266;34;20475;-67
2022/05/16 07:07:41;;;;;;;3.80;1.98;;;;;;;;;;4176235;34;20122;-66
2022/05/16 07:10:08;;;;;;;4.95;2.10;;;;;;;;;;4176353;34;20202;-68
2022/05/16 07:12:34;;;;;;;6.68;2.55;;;;;;;;;;4176649;34;20196;-67
2022/05/16 07:15:00;;;;;;;2.42;1.85;;;;;;;;;;4176755;34;20144;-66
2022/05/16 07:17:27;;;;;;;4.30;1.75;;;;;;;;;;4176699;34;20229;-68
2022/05/16 07:19:53;;;;;;;4.93;2.20;;;;;;;;;;4176329;34;20242;-66
2022/05/16 07:22:23;;;;;;;4.70;2.12;;;;;;;;;;4176000;34;20139;-65
2022/05/16 07:24:51;;;;;;;5.40;2.15;;;;;;;;;;4176142;34;20197;-67
2022/05/16 07:30:05;;;;;;;7.18;2.97;;;;;;;;;;4176065;34;20115;-69
2022/05/16 07:32:43;;;;;;;3.85;2.05;;;;;;;;;;4175900;34;20217;-69
2022/05/16 07:35:11;;;;;;;8.27;2.58;;;;;;;;;;4175862;34;20129;-68
2022/05/16 07:37:38;;;;;;;2.80;2.03;;;;;;;;;;4175886;34;20121;-67
2022/05/16 07:40:07;;;;;;;6.82;3.03;;;;;;;;;;4175920;34;20124;-71
2022/05/16 07:42:33;;;;;;;2.05;1.65;;;;;;;;;;4176301;34;20134;-69
2022/05/16 07:45:00;;;;;;;2.55;2.10;;;;;;;;;;4177968;34;20556;-66
2022/05/16 07:47:29;;;;;;;2.17;1.87;;;;;;;;;;4177973;34;20157;-67
2022/05/16 07:49:56;;;;;;;3.22;1.95;;;;;;;;;;4178058;34;20082;-66
2022/05/16 07:52:23;;;;;;;2.97;1.87;;;;;;;;;;4177942;34;20115;-67
2022/05/16 07:54:49;;;;;;;7.18;2.10;;;;;;;;;;4178231;34;20125;-67
2022/05/16 07:57:15;;;;;;;3.30;1.90;;;;;;;;;;4177978;34;20105;-67
2022/05/16 07:59:42;;;;;;;4.22;2.10;;;;;;;;;;4178029;34;20467;-66
2022/05/16 08:02:08;;;;;;;2.15;1.65;;;;;;;;;;4177900;34;20091;-67
2022/05/16 08:04:34;;;;;;;5.90;1.67;;;;;;;;;;4177965;34;20115;-67
2022/05/16 08:07:04;;;;;;;4.03;1.62;;;;;;;;;;4178000;34;20106;-67
2022/05/16 08:12:24;;;;;;;2.92;2.20;;;;;;;;;;4178024;34;20529;-66
2022/05/16 08:14:50;;;;;;;2.15;1.83;;;;;;;;;;4177895;34;20536;-67
2022/05/16 08:17:16;;;;;;;3.60;2.05;;;;;;;;;;4165285;34;20142;-67
2022/05/16 08:19:42;;;;;;;4.50;1.60;;;;;;;;;;4177882;34;20110;-69
2022/05/16 08:22:08;;;;;;;1.35;1.25;;;;;;;;;;4177652;34;20543;-65
2022/05/16 08:24:34;;;;;;;3.22;1.70;;;;;;;;;;4177733;34;20141;-66
2022/05/16 08:27:02;;;;;;;2.37;1.90;;;;;;;;;;4177837;34;20193;-67
2022/05/16 08:29:30;;;;;;;7.97;2.47;;;;;;;;;;4177606;34;20113;-66
2022/05/16 08:31:56;;;;;;;5.30;2.10;;;;;;;;;;4177431;34;20105;-66
2022/05/16 08:34:23;;;;;;;12.52;3.83;;;;;;;;;;4153357;34;20208;-66
2022/05/16 08:39:52;;;;;;;4.97;2.00;;;;;;;;;;4177574;34;20109;-67
2022/05/16 08:42:25;;;;;;;4.97;2.55;;;;;;;;;;4177443;34;20113;-67
2022/05/16 08:45:04;;;;;;;8.05;2.20;;;;;;;;;;4164927;34;20103;-68
2022/05/16 08:47:55;;;;;;;3.08;1.12;;;;;;;;;;4177497;34;20550;-68
2022/05/16 08:50:38;;;;;;;11.25;2.12;;;;;;;;;;4177632;34;20102;-69
2022/05/16 08:53:17;;;;;;;3.25;1.55;;;;;;;;;;4164770;34;20860;-68
2022/05/16 08:55:49;;;;;;;2.33;1.80;;;;;;;;;;4164795;34;20126;-69
2022/05/16 08:58:29;;;;;;;3.58;1.87;;;;;;;;;;4177578;34;20140;-69
2022/05/16 09:01:03;;;;;;;1.42;1.33;;;;;;;;;;4177487;34;20194;-69
2022/05/16 09:03:50;;;;;;;5.20;1.70;;;;;;;;;;4153448;34;20534;-67
2022/05/16 09:06:38;;;;;;;1.20;1.10;;;;;;;;;;4164647;34;20226;-64
2022/05/16 09:09:12;;;;;;;0.88;0.88;;;;;;;;;;4177341;34;20104;-67
2022/05/16 09:11:58;;;;;;;1.10;1.10;;;;;;;;;;4177471;34;20114;-66
2022/05/16 09:14:26;;;;;;;1.15;1.15;;;;;;;;;;4155446;34;20213;-66
2022/05/16 09:17:07;;;;;;;1.08;1.05;;;;;;;;;;4177407;34;20098;-71
2022/05/16 09:19:51;;;;;;;1.00;1.00;;;;;;;;;;4164820;34;20102;-65
2022/05/16 09:22:20;;;;;;;1.00;1.00;;;;;;;;;;4177010;34;20094;-66
2022/05/16 09:25:19;;;;;;;1.20;1.20;;;;;;;;;;4177306;34;20197;-66
2022/05/16 09:30:40;;;;;;;1.35;1.25;;;;;;;;;;4177287;34;20189;-67
2022/05/16 09:33:20;;;;;;;1.15;1.08;;;;;;;;;;4153074;34;20110;-66
2022/05/16 09:35:56;;;;;;;4.62;1.00;;;;;;;;;;4164266;34;20129;-66
2022/05/16 09:38:22;;;;;;;1.48;1.37;;;;;;;;;;4164465;34;20106;-68
2022/05/16 09:41:03;;;;;;;1.42;1.33;;;;;;;;;;4164348;34;20105;-65
2022/05/16 09:43:34;;;;;;;3.70;1.58;;;;;;;;;;4177024;34;20138;-66
2022/05/16 09:46:10;;;;;;;1.00;1.00;;;;;;;;;;4177280;34;20126;-69
2022/05/16 09:48:36;;;;;;;1.12;1.12;;;;;;;;;;4177362;34;20110;-69
2022/05/16 09:51:04;;;;;;;0.90;0.90;;;;;;;;;;4177234;34;20193;-70
2022/05/16 09:53:42;;;;;;;1.05;1.05;;;;;;;;;;4177009;34;20525;-69
2022/05/16 09:56:37;;;;;;;1.52;1.42;;;;;;;;;;4177006;34;20107;-68
2022/05/16 09:59:05;;;;;;;2.55;1.45;;;;;;;;;;4167881;34;20113;-67
2022/05/16 10:01:51;;;;;;;4.15;1.40;;;;;;;;;;4177030;34;20103;-67
2022/05/16 10:04:19;;;;;;;1.73;1.55;;;;;;;;;;4164831;34;20177;-68
2022/05/16 10:07:01;;;;;;;3.20;1.42;;;;;;;;;;4176758;34;20109;-68
2022/05/16 10:09:30;;;;;;;1.55;1.17;;;;;;;;;;4176751;34;20141;-68
2022/05/16 10:11:57;;;;;;;1.60;1.48;;;;;;;;;;4176922;34;20557;-69
2022/05/16 10:14:24;;;;;;;2.33;2.12;;;;;;;;;;4164086;34;20212;-68
2022/05/16 10:16:51;;;;;;;2.25;1.45;;;;;;;;;;4177131;34;20118;-67
2022/05/16 10:19:27;;;;;;;1.90;1.20;;;;;;;;;;4163863;34;20221;-66
2022/05/16 10:21:57;;;;;;;2.25;1.67;;;;;;;;;;4176857;34;20507;-65
2022/05/16 10:24:29;;;;;;;2.70;1.40;;;;;;;;;;4163969;34;20106;-66
2022/05/16 10:26:56;;;;;;;1.62;1.23;;;;;;;;;;4164119;34;20200;-67
2022/05/16 10:29:29;;;;;;;3.22;1.77;;;;;;;;;;4163975;34;20110;-66
2022/05/16 10:34:54;;;;;;;2.53;1.40;;;;;;;;;;4165700;34;20098;-68
2022/05/16 10:37:20;;;;;;;3.67;1.55;;;;;;;;;;4152338;34;20125;-70
2022/05/16 10:39:50;;;;;;;1.30;1.20;;;;;;;;;;4176642;34;20213;-67
2022/05/16 10:42:24;;;;;;;3.12;1.10;;;;;;;;;;4163853;34;20612;-66
2022/05/16 10:45:16;;;;;;;1.40;1.30;;;;;;;;;;4173945;34;20107;-67
2022/05/16 10:47:59;;;;;;;2.67;1.30;;;;;;;;;;4160024;34;20118;-67
2022/05/16 10:50:28;;;;;;;2.05;1.35;;;;;;;;;;4162936;34;20133;-66
2022/05/16 10:53:01;;;;;;;3.00;1.40;;;;;;;;;;4150329;34;20464;-67
2022/05/16 10:55:45;;;;;;;3.50;1.50;;;;;;;;;;4162903;34;20584;-67
2022/05/16 10:58:15;;;;;;;3.20;1.20;;;;;;;;;;4150078;34;20126;-66
2022/05/16 11:01:06;;;;;;;5.45;1.40;;;;;;;;;;4161578;34;20099;-67
2022/05/16 11:03:31;;;;;;;1.60;1.50;;;;;;;;;;4162935;34;20095;-66
2022/05/16 11:06:19;;;;;;;1.77;1.50;;;;;;;;;;4162511;34;20114;-67
2022/05/16 11:09:12;;;;;;;1.62;1.45;;;;;;;;;;4162790;34;20130;-66
2022/05/16 11:11:50;;;;;;;4.60;1.55;;;;;;;;;;4161506;34;20511;-67
2022/05/16 11:14:38;;;;;;;2.20;1.55;;;;;;;;;;4162903;34;20224;-68
2022/05/16 11:17:28;;;;;;;1.60;1.50;;;;;;;;;;4162982;34;20533;-70
2022/05/16 11:20:26;;;;;;;1.42;1.20;;;;;;;;;;4152061;34;20666;-66
2022/05/16 11:23:17;;;;;;;1.75;1.50;;;;;;;;;;4152211;34;20102;-68
2022/05/16 11:26:02;;;;;;;3.20;2.10;;;;;;;;;;4164522;34;20288;-68
2022/05/16 11:29:20;;;;;;;1.52;1.42;;;;;;;;;;4152063;34;20215;-66
2022/05/16 11:31:58;;;;;;;3.25;1.62;;;;;;;;;;4098123;34;20185;-67
2022/05/16 11:34:35;;;;;;;3.40;1.58;;;;;;;;;;4163523;34;20138;-68
2022/05/16 11:37:31;;;;;;;5.75;2.25;;;;;;;;;;4171543;34;20841;-68
2022/05/16 11:40:10;;;;;;;1.80;1.50;;;;;;;;;;4178424;34;20619;-68
2022/05/16 11:42:58;;;;;;;1.25;1.15;;;;;;;;;;4178280;34;20436;-68
2022/05/16 11:45:55;;;;;;;1.65;1.40;;;;;;;;;;4178404;34;20178;-67
2022/05/16 11:48:36;;;;;;;1.85;1.55;;;;;;;;;;4151794;34;20114;-67
2022/05/16 11:51:20;;;;;;;1.80;1.70;;;;;;;;;;4178035;34;20195;-67
2022/05/16 11:53:50;;;;;;;1.92;1.40;;;;;;;;;;4178176;34;20107;-67
2022/05/16 12:02:08;;;;;;;2.33;1.45;;;;;;;;;;4178075;34;19977;-67
2022/05/16 12:04:47;;;;;;;1.50;1.40;;;;;;;;;;4177817;34;20117;-67
2022/05/16 12:07:16;;;;;;;4.50;1.50;;;;;;;;;;4165237;34;20126;-67
2022/05/16 12:10:14;;;;;;;1.83;1.40;;;;;;;;;;4177868;34;20114;-65
2022/05/16 12:12:45;;;;;;;2.03;1.60;;;;;;;;;;4155977;34;20107;-64
2022/05/16 12:15:26;;;;;;;3.15;1.70;;;;;;;;;;4165345;34;20110;-65
2022/05/16 12:17:53;;;;;;;1.92;1.50;;;;;;;;;;4165424;34;20106;-68
2022/05/16 12:20:42;;;;;;;3.05;1.40;;;;;;;;;;4178001;34;20117;-67
2022/05/16 12:23:13;;;;;;;5.35;1.50;;;;;;;;;;4178065;34;20099;-68
2022/05/16 12:25:41;;;;;;;2.45;1.40;;;;;;;;;;4153868;34;20137;-64
2022/05/16 12:28:13;;;;;;;2.05;1.60;;;;;;;;;;4177430;34;20518;-66
2022/05/16 12:30:53;;;;;;;1.40;1.30;;;;;;;;;;4165050;34;20105;-64
2022/05/16 12:33:41;;;;;;;4.43;1.50;;;;;;;;;;4177617;34;20622;-65
2022/05/16 12:36:23;;;;;;;3.12;1.70;;;;;;;;;;4177528;34;20114;-65
2022/05/16 12:39:03;;;;;;;2.00;1.48;;;;;;;;;;4176337;34;20591;-65
2022/05/16 12:42:20;;;;;;;2.03;1.60;;;;;;;;;;4164815;34;20127;-66
2022/05/16 12:44:55;;;;;;;6.47;1.58;;;;;;;;;;4154145;34;20182;-64
2022/05/16 12:47:43;;;;;;;2.35;1.50;;;;;;;;;;4177578;34;20109;-65
2022/05/16 12:50:33;;;;;;;1.42;1.33;;;;;;;;;;4177761;34;20106;-64
2022/05/16 12:53:12;;;;;;;1.30;1.20;;;;;;;;;;4177525;34;20121;-67
2022/05/16 12:55:56;;;;;;;2.37;1.15;;;;;;;;;;4177477;34;20138;-66
2022/05/16 12:58:27;;;;;;;1.33;1.20;;;;;;;;;;4177466;34;20102;-66
2022/05/16 13:01:05;;;;;;;1.30;1.20;;;;;;;;;;4177433;34;20110;-66
2022/05/16 13:03:59;;;;;;;1.40;1.30;;;;;;;;;;4165062;34;20240;-65
2022/05/16 13:06:31;;;;;;;2.03;1.40;;;;;;;;;;4177731;34;20122;-65
2022/05/16 13:09:21;;;;;;;5.05;1.33;;;;;;;;;;4177652;34;20113;-65
2022/05/16 13:12:05;;;;;;;2.55;1.50;;;;;;;;;;4177647;34;20106;-67
2022/05/16 13:14:50;;;;;;;2.80;1.40;;;;;;;;;;4164737;34;20111;-68
2022/05/16 13:17:37;;;;;;;1.67;1.42;;;;;;;;;;4177284;34;20499;-68
2022/05/16 13:20:12;;;;;;;2.45;1.55;;;;;;;;;;4164888;34;20118;-64
2022/05/16 13:22:41;;;;;;;2.65;1.40;;;;;;;;;;4164722;34;20102;-66
2022/05/16 13:25:08;;;;;;;1.70;1.27;;;;;;;;;;4164605;34;20125;-65
2022/05/16 13:30:21;;;;;;;1.95;1.33;;;;;;;;;;4177186;34;20201;-65
2022/05/16 13:32:48;;;;;;;1.62;1.30;;;;;;;;;;4164569;34;20148;-66
2022/05/16 13:35:27;;;;;;;4.10;1.20;;;;;;;;;;4164561;34;20149;-67
2022/05/16 13:37:54;;;;;;;4.15;1.60;;;;;;;;;;4177058;34;20114;-66
2022/05/16 13:40:23;;;;;;;1.20;1.10;;;;;;;;;;4176068;34;20206;-66
2022/05/16 13:42:50;;;;;;;4.45;1.33;;;;;;;;;;4176717;34;20090;-65
2022/05/16 13:45:21;;;;;;;2.10;1.20;;;;;;;;;;4177344;34;20117;-66
2022/05/16 13:47:48;;;;;;;5.12;1.27;;;;;;;;;;4164036;34;20111;-68
2022/05/16 13:50:42;;;;;;;2.87;1.40;;;;;;;;;;4164492;34;20094;-67
2022/05/16 13:53:08;;;;;;;1.92;1.30;;;;;;;;;;4175531;34;20197;-67
2022/05/16 13:55:35;;;;;;;1.42;1.27;;;;;;;;;;4176884;34;20495;-67
2022/05/16 13:58:06;;;;;;;1.98;1.27;;;;;;;;;;4164123;34;20526;-69
2022/05/16 14:00:32;;;;;;;2.40;1.75;;;;;;;;;;4164192;34;20217;-67
2022/05/16 14:03:01;;;;;;;5.15;2.62;;;;;;;;;;4176834;34;20141;-66
2022/05/16 14:05:36;;;;;;;5.20;1.67;;;;;;;;;;4176878;34;20278;-66
2022/05/16 14:08:03;;;;;;;;;;;;;;;;;;4177241;34;20115;-63
2022/05/16 14:10:30;;;;;;;3.33;1.35;;;;;;;;;;4176984;34;20001;-67
2022/05/16 14:13:02;;;;;;;2.87;2.37;;;;;;;;;;4176757;34;20161;-68
2022/05/16 14:15:36;;;;;;;2.35;1.45;;;;;;;;;;4164373;34;20130;-67
2022/05/16 14:18:11;;;;;;;3.85;1.50;;;;;;;;;;4176772;34;20107;-67
2022/05/16 14:20:47;;;;;;;4.22;1.85;;;;;;;;;;4176771;34;20109;-67
2022/05/16 14:23:22;;;;;;;1.83;1.20;;;;;;;;;;4176835;34;20207;-67
2022/05/16 14:25:52;;;;;;;4.28;1.40;;;;;;;;;;4176611;34;20546;-68
2022/05/16 14:28:30;;;;;;;6.62;1.62;;;;;;;;;;4163969;34;20531;-67
2022/05/16 14:30:57;;;;;;;4.25;1.55;;;;;;;;;;4176486;34;20126;-67
2022/05/16 14:33:34;;;;;;;3.35;1.58;;;;;;;;;;4176587;34;20490;-68
2022/05/16 14:36:07;;;;;;;3.40;1.67;;;;;;;;;;4163679;34;20180;-69
2022/05/16 14:38:47;;;;;;;3.53;1.30;;;;;;;;;;4163789;34;20194;-68
2022/05/16 14:41:19;;;;;;;4.15;1.42;;;;;;;;;;4176727;34;20117;-68
2022/05/16 14:44:04;;;;;;;1.90;1.58;;;;;;;;;;4163833;34;20216;-67
2022/05/16 14:46:45;;;;;;;2.03;1.27;;;;;;;;;;4176453;34;20134;-65
2022/05/16 14:49:13;;;;;;;1.55;1.33;;;;;;;;;;4176545;34;20125;-66
2022/05/16 14:51:40;;;;;;;2.80;1.48;;;;;;;;;;4176914;34;20506;-64
2022/05/16 14:54:19;;;;;;;4.30;1.60;;;;;;;;;;4178649;34;20114;-65
2022/05/16 14:56:45;;;;;;;4.40;1.77;;;;;;;;;;4165943;34;20829;-64
2022/05/16 14:59:11;;;;;;;2.45;1.50;;;;;;;;;;4178519;34;20214;-64
2022/05/16 15:04:22;;;;;;;6.05;1.70;;;;;;;;;;4178270;34;20210;-65
2022/05/16 15:06:48;;;;;;;2.90;1.35;;;;;;;;;;4178251;34;20102;-65
2022/05/16 15:09:16;;;;;;;1.60;1.37;;;;;;;;;;4178482;34;20603;-65
2022/05/16 15:11:51;;;;;;;4.82;2.05;;;;;;;;;;4162936;34;20142;-64
2022/05/16 15:14:19;;;;;;;5.15;1.40;;;;;;;;;;4174391;34;20104;-65
2022/05/16 15:16:45;;;;;;;4.80;1.80;;;;;;;;;;4174873;34;20117;-64
2022/05/16 15:19:12;;;;;;;2.37;2.17;;;;;;;;;;4174658;34;20138;-67
2022/05/16 15:21:39;;;;;;;3.17;1.55;;;;;;;;;;4177871;34;20113;-65
2022/05/16 15:24:09;;;;;;;3.58;1.73;;;;;;;;;;4177803;34;20125;-63
2022/05/16 15:26:36;;;;;;;5.40;1.80;;;;;;;;;;4165513;34;20118;-72
2022/05/16 15:29:02;;;;;;;6.60;1.35;;;;;;;;;;4178291;34;20133;-66
2022/05/16 15:31:28;;;;;;;9.10;3.03;;;;;;;;;;4178248;34;20452;-66
2022/05/16 15:33:55;;;;;;;3.60;1.58;;;;;;;;;;4178374;34;20218;-71
2022/05/16 15:36:21;;;;;;;3.35;1.52;;;;;;;;;;4178204;34;20480;-66
2022/05/16 15:38:48;;;;;;;3.62;2.00;;;;;;;;;;4178235;34;20196;-66
2022/05/16 15:41:15;;;;;;;6.90;1.45;;;;;;;;;;4178136;34;20133;-67
2022/05/16 15:43:41;;;;;;;5.37;1.62;;;;;;;;;;4165204;34;20467;-68
2022/05/16 15:46:13;;;;;;;7.68;1.48;;;;;;;;;;4165164;34;20202;-66
2022/05/16 15:48:43;;;;;;;2.45;1.55;;;;;;;;;;4178144;34;20124;-66
2022/05/16 15:51:11;;;;;;;3.28;1.83;;;;;;;;;;4178079;34;20455;-64
2022/05/16 15:53:38;;;;;;;2.70;1.65;;;;;;;;;;4178123;34;20603;-66
2022/05/16 15:56:04;;;;;;;2.33;1.33;;;;;;;;;;4177905;34;20551;-65
2022/05/16 15:58:31;;;;;;;6.12;1.50;;;;;;;;;;4165611;34;20106;-66
2022/05/16 16:00:58;;;;;;;1.83;1.67;;;;;;;;;;4177853;34;20130;-65
2022/05/16 16:09:13;;;;;;;5.95;1.60;;;;;;;;;;4177980;34;20466;-66
2022/05/16 16:11:40;;;;;;;8.20;1.85;;;;;;;;;;4154002;34;20098;-65
2022/05/16 16:14:07;;;;;;;10.18;2.30;;;;;;;;;;4178024;34;20586;-65
2022/05/16 16:16:33;;;;;;;3.30;1.67;;;;;;;;;;4177696;34;20125;-69
2022/05/16 16:19:01;;;;;;;8.93;1.65;;;;;;;;;;4165203;34;20134;-68